Rockwood, Tennessee
Current Conditions -  °F | °C
As of 2:53 PM on Sunday 23 Nov 2014 (Local Time) from KCSV Reporting Station
Overcast Overcast  
Wind Chill: 56°   Ceiling: 1700
Heat Index: 56°   Visibility: 9mi
Dew Point: 50°   Wind: 13mph
Humidity: 80%   Direction: 130°SE
Pressure: 29.67"   Gusts: 21mph
Location:  35.87°N, 84.68°W
Report Text: KCSV 231953Z AUTO 13011G18KT 9SM SCT013 BKN017 OVC028 13/10 A2967 RMK AO2 RAB44E53 SLP040 P0000 T01330100
Loading
Personal Weather Stations






























Interactive Weather Map New forecast layout! Learn more

10-Day Weather Forecast

Advertisements
Track Severe Weather on mobile